createdAt,value
2022-11-19T00:00:25.296Z,76.72
2022-11-19T00:01:25.302Z,76.72
2022-11-19T00:02:25.334Z,76.82
2022-11-19T00:03:25.266Z,76.68
2022-11-19T00:04:25.253Z,76.68
2022-11-19T00:05:25.244Z,76.89
2022-11-19T00:06:25.241Z,76.72
2022-11-19T00:07:25.283Z,76.72
2022-11-19T00:09:25.545Z,76.47
2022-11-19T00:10:25.530Z,76.26
2022-11-19T00:11:25.524Z,75.88
2022-11-19T00:12:25.522Z,75.56
2022-11-19T00:13:25.506Z,76.02
2022-11-19T00:14:25.491Z,76.23
2022-11-19T00:15:25.482Z,76.51
2022-11-19T00:16:25.471Z,76.54
2022-11-19T00:17:25.487Z,76.86
2022-11-19T00:18:25.450Z,76.40
2022-11-19T00:19:25.440Z,75.98
2022-11-19T00:20:25.428Z,75.70
2022-11-19T00:21:25.427Z,75.60
2022-11-19T00:22:32.466Z,75.70
2022-11-19T00:23:25.405Z,75.70
2022-11-19T00:24:25.390Z,76.02
2022-11-19T00:25:25.383Z,76.26
2022-11-19T00:26:25.371Z,76.37
2022-11-19T00:27:25.376Z,76.68
2022-11-19T00:28:25.351Z,77.00
2022-11-19T00:29:25.339Z,76.68
2022-11-19T00:30:46.898Z,77.10
2022-11-19T00:31:32.368Z,77.52
2022-11-19T00:32:25.331Z,77.73
2022-11-19T00:33:25.336Z,77.84
2022-11-19T00:34:25.299Z,77.94
2022-11-19T00:35:25.280Z,77.94
2022-11-19T00:36:25.277Z,77.94
2022-11-19T00:37:25.290Z,78.11
2022-11-19T00:38:25.255Z,78.11
2022-11-19T00:39:25.253Z,77.70
2022-11-19T00:40:25.236Z,78.01
2022-11-19T00:41:25.230Z,78.01
2022-11-19T00:42:25.225Z,77.80
2022-11-19T00:43:25.207Z,78.11
2022-11-19T00:44:25.189Z,77.80
2022-11-19T00:45:25.179Z,77.80
2022-11-19T00:46:25.171Z,77.66
2022-11-19T00:47:25.173Z,77.66
2022-11-19T00:48:25.153Z,77.59
2022-11-19T00:49:25.159Z,77.34
2022-11-19T00:50:25.148Z,77.48
2022-11-19T00:51:25.121Z,77.59
2022-11-19T00:52:25.124Z,77.76
2022-11-19T00:53:25.105Z,77.80
2022-11-19T00:54:25.097Z,77.80
2022-11-19T00:55:25.084Z,77.76
2022-11-19T00:56:25.070Z,77.70
2022-11-19T00:57:25.093Z,77.59
2022-11-19T00:58:25.048Z,77.80
2022-11-19T00:59:25.037Z,77.34
2022-11-19T01:00:25.031Z,77.45
2022-11-19T01:01:25.115Z,77.03
2022-11-19T01:02:25.083Z,76.54
2022-11-19T01:03:27.444Z,76.43
2022-11-19T01:04:32.752Z,75.92
2022-11-19T01:05:24.970Z,75.74
2022-11-19T01:06:24.958Z,75.21
2022-11-19T01:07:24.999Z,75.01
2022-11-19T01:08:24.940Z,75.11
2022-11-19T01:09:24.938Z,74.90
2022-11-19T01:10:24.920Z,75.11
2022-11-19T01:11:24.914Z,75.63
2022-11-19T01:12:24.915Z,76.16
2022-11-19T01:13:24.891Z,76.47
2022-11-19T01:14:24.877Z,76.37
2022-11-19T01:15:24.870Z,76.47
2022-11-19T01:16:24.871Z,76.79
2022-11-19T01:17:31.903Z,76.75
2022-11-19T01:18:24.836Z,77.10
2022-11-19T01:19:24.831Z,76.89
2022-11-19T01:20:24.880Z,76.51
2022-11-19T01:21:24.808Z,76.19
2022-11-19T01:22:24.806Z,75.98
2022-11-19T01:23:24.789Z,75.98
2022-11-19T01:24:24.777Z,76.65
2022-11-19T01:25:24.766Z,76.82
2022-11-19T01:26:24.758Z,77.14
2022-11-19T01:27:24.759Z,77.34
2022-11-19T01:28:24.734Z,77.56
2022-11-19T01:29:24.734Z,77.66
2022-11-19T01:30:24.714Z,78.39
2022-11-19T01:31:24.711Z,77.98
2022-11-19T01:32:24.711Z,78.29
2022-11-19T01:33:24.686Z,79.03
2022-11-19T01:34:24.675Z,78.50
2022-11-19T01:35:24.664Z,78.50
2022-11-19T01:36:24.688Z,78.92
2022-11-19T01:37:24.655Z,78.71
2022-11-19T01:38:24.632Z,78.71
2022-11-19T01:39:24.621Z,78.92
2022-11-19T01:40:24.611Z,78.78
2022-11-19T01:41:24.606Z,78.57
2022-11-19T01:42:24.608Z,78.78
2022-11-19T01:43:24.584Z,78.67
2022-11-19T01:44:24.570Z,78.89
2022-11-19T01:45:24.559Z,78.50
2022-11-19T01:46:24.554Z,78.78
2022-11-19T01:47:24.567Z,78.71
2022-11-19T01:48:24.531Z,79.03
2022-11-19T01:49:24.522Z,79.41
2022-11-19T01:50:24.508Z,78.99
2022-11-19T01:51:24.500Z,78.78
2022-11-19T01:52:24.522Z,78.67
2022-11-19T01:53:25.265Z,79.10
2022-11-19T01:54:24.471Z,78.71
2022-11-19T01:55:24.498Z,78.71
2022-11-19T01:56:24.448Z,78.92
2022-11-19T01:57:24.453Z,78.71
2022-11-19T01:58:24.429Z,78.92
2022-11-19T01:59:24.418Z,79.03
2022-11-19T02:00:24.406Z,79.24
2022-11-19T02:01:24.464Z,79.24
2022-11-19T02:02:24.401Z,79.03
2022-11-19T02:03:24.375Z,79.34
2022-11-19T02:04:24.372Z,79.34
2022-11-19T02:05:24.357Z,79.34
2022-11-19T02:06:24.345Z,78.71
2022-11-19T02:07:24.415Z,78.39
2022-11-19T02:08:24.342Z,77.98
2022-11-19T02:09:24.313Z,77.98
2022-11-19T02:10:24.308Z,77.34
2022-11-19T02:11:24.294Z,77.38
2022-11-19T02:12:24.294Z,77.03
2022-11-19T02:13:24.276Z,76.82
2022-11-19T02:14:24.263Z,76.93
2022-11-19T02:15:24.254Z,76.86
2022-11-19T02:16:24.242Z,76.86
2022-11-19T02:17:24.262Z,76.54
2022-11-19T02:18:24.223Z,76.33
2022-11-19T02:19:24.212Z,76.23
2022-11-19T02:20:24.200Z,76.37
2022-11-19T02:21:24.191Z,76.89
2022-11-19T02:22:24.198Z,77.21
2022-11-19T02:23:24.215Z,77.21
2022-11-19T02:24:24.241Z,77.42
2022-11-19T02:25:24.151Z,77.87
2022-11-19T02:26:24.136Z,78.89
2022-11-19T02:27:24.146Z,78.78
2022-11-19T02:28:24.118Z,79.21
2022-11-19T02:29:24.109Z,78.85
2022-11-19T02:30:24.097Z,79.69
2022-11-19T02:31:24.130Z,79.58
2022-11-19T02:32:24.096Z,79.48
2022-11-19T02:33:24.073Z,79.69
2022-11-19T02:34:24.057Z,80.36
2022-11-19T02:35:24.047Z,80.68
2022-11-19T02:36:24.035Z,80.78
2022-11-19T02:37:24.039Z,80.68
2022-11-19T02:38:24.024Z,80.68
2022-11-19T02:39:24.005Z,80.99
2022-11-19T02:40:24.018Z,80.99
2022-11-19T02:41:23.987Z,81.41
2022-11-19T02:42:23.993Z,81.41
2022-11-19T02:43:23.984Z,81.55
2022-11-19T02:44:23.952Z,81.87
2022-11-19T02:45:23.944Z,81.45
2022-11-19T02:46:23.937Z,81.97
2022-11-19T02:47:23.938Z,81.73
2022-11-19T02:48:23.913Z,82.81
2022-11-19T02:49:23.905Z,82.81
2022-11-19T02:50:23.891Z,82.67
2022-11-19T02:51:23.882Z,82.67
2022-11-19T02:52:23.904Z,82.56
2022-11-19T02:53:23.861Z,82.78
2022-11-19T02:54:23.850Z,82.63
2022-11-19T02:55:23.841Z,81.90
2022-11-19T02:56:23.851Z,82.74
2022-11-19T02:57:23.836Z,81.90
2022-11-19T02:58:23.812Z,81.79
2022-11-19T02:59:23.801Z,81.48
2022-11-19T03:00:23.794Z,81.37
2022-11-19T03:01:23.858Z,82.00
2022-11-19T03:02:23.784Z,81.54
2022-11-19T03:03:23.763Z,81.34
2022-11-19T03:04:23.748Z,81.37
2022-11-19T03:05:23.739Z,80.71
2022-11-19T03:06:23.729Z,81.12
2022-11-19T03:07:23.800Z,80.71
2022-11-19T03:08:23.708Z,80.49
2022-11-19T03:09:23.699Z,80.60
2022-11-19T03:10:23.685Z,80.49
2022-11-19T03:11:23.676Z,80.49
2022-11-19T03:12:23.701Z,80.49
2022-11-19T03:13:23.657Z,80.64
2022-11-19T03:14:23.647Z,80.60
2022-11-19T03:15:23.636Z,81.02
2022-11-19T03:16:23.625Z,81.02
2022-11-19T03:17:23.630Z,80.71
2022-11-19T03:18:23.606Z,81.16
2022-11-19T03:19:23.595Z,81.05
2022-11-19T03:20:23.585Z,81.16
2022-11-19T03:21:23.579Z,81.27
2022-11-19T03:22:23.578Z,81.16
2022-11-19T03:23:23.554Z,80.95
2022-11-19T03:24:23.545Z,81.16
2022-11-19T03:25:23.538Z,81.23
2022-11-19T03:26:23.522Z,81.34
2022-11-19T03:27:23.529Z,80.91
2022-11-19T03:28:23.540Z,81.54
2022-11-19T03:29:23.488Z,81.54
2022-11-19T03:30:23.481Z,81.34
2022-11-19T03:31:23.470Z,81.44
2022-11-19T03:32:23.471Z,81.02
2022-11-19T03:33:23.452Z,81.12
2022-11-19T03:34:23.440Z,81.02
2022-11-19T03:35:23.430Z,81.16
2022-11-19T03:36:23.429Z,81.16
2022-11-19T03:37:23.422Z,80.64
2022-11-19T03:38:23.402Z,80.74
2022-11-19T03:39:23.390Z,81.05
2022-11-19T03:40:23.388Z,80.95
2022-11-19T03:41:23.368Z,81.16
2022-11-19T03:42:23.372Z,81.69
2022-11-19T03:43:23.351Z,81.69
2022-11-19T03:44:23.362Z,81.58
2022-11-19T03:45:23.414Z,81.69
2022-11-19T03:46:23.319Z,81.27
2022-11-19T03:47:23.354Z,81.44
2022-11-19T03:48:23.301Z,81.54
2022-11-19T03:49:23.286Z,81.58
2022-11-19T03:50:23.280Z,81.12
2022-11-19T03:51:23.265Z,81.12
2022-11-19T03:52:23.265Z,81.12
2022-11-19T03:53:23.259Z,81.27
2022-11-19T03:54:23.238Z,81.02
2022-11-19T03:55:23.225Z,81.16
2022-11-19T03:56:23.215Z,81.12
2022-11-19T03:57:23.207Z,81.12
2022-11-19T03:58:23.209Z,81.02
2022-11-19T03:59:26.847Z,81.12
2022-11-19T04:00:24.190Z,80.81
2022-11-19T04:01:23.250Z,81.12
2022-11-19T04:02:23.154Z,80.91
2022-11-19T04:03:23.161Z,81.12
2022-11-19T04:04:23.156Z,81.12
2022-11-19T04:05:23.124Z,80.64
2022-11-19T04:06:23.115Z,80.60
2022-11-19T04:07:23.167Z,80.49
2022-11-19T04:08:23.113Z,80.53
2022-11-19T04:09:23.081Z,80.53
2022-11-19T04:10:23.072Z,81.02
2022-11-19T04:12:24.794Z,81.12
2022-11-19T04:13:23.074Z,81.12
2022-11-19T04:14:23.052Z,81.12
2022-11-19T04:15:23.044Z,81.34
2022-11-19T04:16:23.049Z,81.48
2022-11-19T04:17:23.028Z,81.23
2022-11-19T04:18:23.022Z,81.12
2022-11-19T04:19:23.007Z,81.12
2022-11-19T04:20:22.989Z,81.23
2022-11-19T04:21:23.026Z,81.23
2022-11-19T04:22:22.975Z,81.02
2022-11-19T04:23:22.971Z,81.12
2022-11-19T04:24:23.113Z,81.02
2022-11-19T04:25:22.940Z,81.02
2022-11-19T04:26:22.942Z,81.05
2022-11-19T04:27:22.919Z,81.12
2022-11-19T04:28:22.917Z,81.02
2022-11-19T04:29:22.900Z,81.12
2022-11-19T04:30:22.886Z,80.91
2022-11-19T04:31:22.883Z,81.02
2022-11-19T04:32:22.884Z,80.91
2022-11-19T04:33:22.871Z,81.12
2022-11-19T04:34:22.850Z,81.23
2022-11-19T04:35:22.836Z,81.02
2022-11-19T04:36:22.822Z,80.91
2022-11-19T04:37:22.817Z,81.12
2022-11-19T04:38:22.840Z,80.71
2022-11-19T04:39:23.097Z,80.49
2022-11-19T04:40:22.783Z,80.60
2022-11-19T04:41:22.786Z,80.49
2022-11-19T04:42:22.763Z,80.81
2022-11-19T04:43:22.769Z,80.71
2022-11-19T04:44:22.742Z,80.81
2022-11-19T04:45:22.732Z,80.91
2022-11-19T04:46:22.719Z,80.91
2022-11-19T04:47:22.714Z,80.71
2022-11-19T04:48:22.738Z,80.71
2022-11-19T04:49:22.703Z,80.29
2022-11-19T04:50:22.679Z,81.02
2022-11-19T04:51:22.674Z,80.91
2022-11-19T04:52:22.679Z,80.81
2022-11-19T04:53:22.666Z,80.71
2022-11-19T04:54:22.642Z,80.53
2022-11-19T04:55:22.639Z,80.49
2022-11-19T04:56:22.624Z,80.49
2022-11-19T04:57:22.609Z,80.81
2022-11-19T04:58:22.616Z,80.91
2022-11-19T04:59:22.711Z,81.02
2022-11-19T05:00:22.581Z,81.23
2022-11-19T05:01:22.680Z,81.23
2022-11-19T05:02:22.557Z,80.91
2022-11-19T05:03:22.561Z,81.02
2022-11-19T05:04:22.568Z,80.60
2022-11-19T05:05:22.534Z,80.60
2022-11-19T05:06:22.521Z,80.39
2022-11-19T05:07:22.547Z,80.49
2022-11-19T05:08:22.514Z,80.39
2022-11-19T05:09:22.673Z,80.60
2022-11-19T05:10:22.513Z,80.71
2022-11-19T05:11:22.474Z,80.53
2022-11-19T05:12:22.478Z,80.39
2022-11-19T05:13:22.459Z,80.49
2022-11-19T05:14:24.783Z,80.49
2022-11-19T05:15:23.489Z,80.49
2022-11-19T05:16:22.419Z,80.49
2022-11-19T05:17:22.402Z,80.60
2022-11-19T05:18:22.455Z,80.49
2022-11-19T05:19:22.477Z,80.60
2022-11-19T05:20:22.394Z,80.60
2022-11-19T05:21:22.364Z,80.60
2022-11-19T05:22:22.372Z,80.71
2022-11-19T05:23:22.353Z,80.49
2022-11-19T05:24:22.347Z,80.60
2022-11-19T05:25:22.323Z,80.60
2022-11-19T05:26:22.313Z,80.60
2022-11-19T05:27:22.301Z,80.81
2022-11-19T05:28:37.550Z,80.81
2022-11-19T05:29:23.299Z,80.91
2022-11-19T05:30:22.281Z,80.81
2022-11-19T05:31:22.314Z,80.91
2022-11-19T05:32:22.250Z,80.91
2022-11-19T05:33:22.249Z,80.81
2022-11-19T05:34:22.436Z,80.91
2022-11-19T05:35:22.221Z,81.02
2022-11-19T05:36:22.282Z,80.81
2022-11-19T05:37:22.199Z,81.02
2022-11-19T05:38:22.239Z,80.71
2022-11-19T05:39:22.583Z,80.81
2022-11-19T05:40:22.175Z,80.81
2022-11-19T05:41:22.656Z,80.81
2022-11-19T05:42:22.177Z,80.67
2022-11-19T05:43:22.211Z,80.81
2022-11-19T05:44:22.126Z,80.77
2022-11-19T05:45:22.122Z,81.02
2022-11-19T05:46:22.105Z,80.77
2022-11-19T05:47:22.203Z,80.88
2022-11-19T05:48:22.100Z,80.88
2022-11-19T05:49:22.278Z,80.88
2022-11-19T05:50:22.066Z,80.81
2022-11-19T05:51:22.055Z,80.77
2022-11-19T05:52:22.063Z,80.15
2022-11-19T05:53:22.199Z,80.15
2022-11-19T05:54:22.117Z,80.35
2022-11-19T05:55:22.021Z,80.15
2022-11-19T05:56:22.003Z,80.08
2022-11-19T05:57:22.001Z,80.57
2022-11-19T05:58:22.010Z,80.57
2022-11-19T05:59:22.257Z,80.25
2022-11-19T06:00:21.975Z,80.15
2022-11-19T06:01:22.297Z,80.25
2022-11-19T06:02:22.011Z,80.15
2022-11-19T06:03:21.945Z,80.15
2022-11-19T06:04:21.918Z,79.24
2022-11-19T06:05:21.917Z,79.13
2022-11-19T06:06:21.899Z,79.55
2022-11-19T06:07:21.934Z,79.66
2022-11-19T06:08:21.910Z,79.66
2022-11-19T06:09:22.278Z,79.86
2022-11-19T06:10:21.851Z,80.18
2022-11-19T06:11:21.856Z,79.66
2022-11-19T06:12:21.831Z,79.66
2022-11-19T06:13:21.852Z,79.24
2022-11-19T06:14:21.811Z,79.24
2022-11-19T06:15:21.806Z,79.66
2022-11-19T06:16:21.788Z,79.24
2022-11-19T06:17:21.789Z,79.38
2022-11-19T06:18:21.786Z,79.13
2022-11-19T06:19:22.130Z,79.24
2022-11-19T06:20:21.749Z,79.03
2022-11-19T06:21:21.744Z,79.13
2022-11-19T06:22:21.729Z,79.66
2022-11-19T06:23:21.730Z,79.55
2022-11-19T06:24:21.727Z,79.24
2022-11-19T06:25:21.703Z,79.34
2022-11-19T06:26:21.687Z,79.24
2022-11-19T06:27:21.688Z,79.44
2022-11-19T06:28:21.684Z,79.24
2022-11-19T06:29:21.988Z,79.30
2022-11-19T06:30:21.647Z,79.55
2022-11-19T06:31:21.641Z,79.20
2022-11-19T06:32:21.623Z,79.13
2022-11-19T06:33:21.638Z,79.34
2022-11-19T06:34:21.602Z,79.24
2022-11-19T06:35:21.602Z,79.34
2022-11-19T06:36:21.582Z,79.10
2022-11-19T06:37:21.576Z,78.89
2022-11-19T06:38:21.576Z,78.92
2022-11-19T06:39:22.016Z,79.03
2022-11-19T06:40:21.556Z,78.71
2022-11-19T06:41:21.548Z,78.29
2022-11-19T06:42:21.523Z,79.03
2022-11-19T06:43:21.528Z,78.50
2022-11-19T06:44:21.506Z,78.25
2022-11-19T06:45:21.505Z,78.25
2022-11-19T06:46:21.480Z,78.05
2022-11-19T06:47:21.473Z,77.94
2022-11-19T06:48:21.473Z,77.73
2022-11-19T06:49:22.143Z,78.25
2022-11-19T06:50:21.438Z,77.84
2022-11-19T06:51:21.433Z,77.94
2022-11-19T06:52:21.443Z,78.05
2022-11-19T06:53:21.431Z,78.15
2022-11-19T06:54:21.470Z,77.70
2022-11-19T06:55:21.390Z,77.62
2022-11-19T06:56:21.428Z,77.84
2022-11-19T06:57:21.371Z,78.15
2022-11-19T06:58:21.382Z,77.52
2022-11-19T06:59:21.862Z,77.59
2022-11-19T07:00:21.337Z,77.70
2022-11-19T07:01:21.501Z,77.80
2022-11-19T07:02:21.861Z,77.80
2022-11-19T07:03:21.321Z,77.17
2022-11-19T07:04:21.298Z,77.21
2022-11-19T07:05:21.289Z,77.28
2022-11-19T07:06:21.273Z,77.80
2022-11-19T07:07:21.317Z,77.70
2022-11-19T07:08:21.267Z,77.28
2022-11-19T07:09:21.664Z,77.38
2022-11-19T07:10:21.238Z,77.48
2022-11-19T07:11:21.369Z,77.17
2022-11-19T07:12:21.234Z,77.38
2022-11-19T07:13:21.216Z,77.38
2022-11-19T07:14:21.189Z,77.07
2022-11-19T07:15:21.196Z,76.96
2022-11-19T07:16:21.182Z,77.07
2022-11-19T07:17:28.711Z,77.03
2022-11-19T07:18:21.158Z,77.07
2022-11-19T07:19:21.651Z,77.03
2022-11-19T07:20:21.118Z,76.93
2022-11-19T07:21:21.130Z,76.93
2022-11-19T07:22:21.099Z,76.79
2022-11-19T07:23:21.103Z,76.79
2022-11-19T07:24:21.080Z,76.54
2022-11-19T07:25:21.071Z,76.09
2022-11-19T07:26:21.058Z,75.43
2022-11-19T07:27:21.048Z,73.79
2022-11-19T07:28:21.067Z,73.65
2022-11-19T07:29:21.440Z,72.26
2022-11-19T07:30:28.797Z,71.39
2022-11-19T07:31:21.017Z,70.98
2022-11-19T07:32:20.996Z,69.82
2022-11-19T07:33:28.040Z,70.04
2022-11-19T07:34:20.975Z,70.28
2022-11-19T07:35:20.965Z,69.65
2022-11-19T07:36:20.954Z,70.59
2022-11-19T07:37:20.942Z,71.01
2022-11-19T07:38:20.942Z,69.34
2022-11-19T07:39:21.379Z,69.93
2022-11-19T07:40:20.918Z,69.82
2022-11-19T07:41:20.901Z,70.11
2022-11-19T07:42:20.894Z,69.66
2022-11-19T07:43:20.892Z,68.72
2022-11-19T07:44:20.888Z,68.51
2022-11-19T07:45:20.864Z,68.30
2022-11-19T07:46:20.846Z,68.30
2022-11-19T07:47:20.839Z,68.82
2022-11-19T07:48:20.836Z,68.48
2022-11-19T07:49:21.151Z,68.84
2022-11-19T07:50:20.810Z,67.97
2022-11-19T07:51:20.797Z,66.56
2022-11-19T07:52:20.783Z,65.38
2022-11-19T07:53:20.784Z,65.45
2022-11-19T07:54:20.766Z,64.21
2022-11-19T07:55:20.753Z,64.65
2022-11-19T07:56:20.743Z,64.24
2022-11-19T07:57:22.639Z,64.89
2022-11-19T07:58:21.732Z,64.89
2022-11-19T07:59:21.138Z,65.72
2022-11-19T08:00:20.722Z,65.48
2022-11-19T08:01:20.833Z,64.94
2022-11-19T08:02:20.678Z,63.97
2022-11-19T08:03:20.674Z,63.73
2022-11-19T08:04:20.661Z,62.09
2022-11-19T08:05:20.644Z,60.61
2022-11-19T08:06:20.634Z,60.61
2022-11-19T08:07:20.707Z,60.53
2022-11-19T08:08:21.317Z,60.05
2022-11-19T08:09:20.981Z,60.15
2022-11-19T08:10:20.592Z,61.24
2022-11-19T08:11:20.581Z,61.48
2022-11-19T08:12:20.584Z,62.34
2022-11-19T08:13:20.568Z,62.88
2022-11-19T08:14:20.549Z,63.85
2022-11-19T08:15:20.537Z,64.06
2022-11-19T08:16:20.546Z,64.89
2022-11-19T08:17:20.517Z,65.13
2022-11-19T08:18:20.516Z,65.55
2022-11-19T08:19:20.754Z,65.26
2022-11-19T08:20:20.485Z,66.20
2022-11-19T08:21:20.474Z,66.86
2022-11-19T08:22:20.466Z,66.75
2022-11-19T08:23:20.469Z,67.51
2022-11-19T08:24:20.911Z,67.41
2022-11-19T08:25:20.430Z,67.72
2022-11-19T08:26:20.421Z,68.45
2022-11-19T08:27:20.407Z,68.03
2022-11-19T08:28:27.480Z,67.61
2022-11-19T08:29:20.393Z,68.55
2022-11-19T08:30:20.392Z,68.87
2022-11-19T08:31:20.379Z,68.79
2022-11-19T08:32:20.381Z,68.69
2022-11-19T08:33:20.363Z,69.21
2022-11-19T08:34:20.639Z,69.21
2022-11-19T08:35:20.325Z,69.21
2022-11-19T08:36:20.319Z,69.24
2022-11-19T08:37:20.305Z,70.07
2022-11-19T08:38:20.323Z,69.66
2022-11-19T08:39:20.288Z,69.97
2022-11-19T08:40:20.274Z,69.84
2022-11-19T08:41:20.261Z,70.28
2022-11-19T08:42:20.253Z,69.87
2022-11-19T08:43:27.314Z,69.87
2022-11-19T08:44:20.516Z,70.04
2022-11-19T08:45:21.041Z,70.04
2022-11-19T08:46:20.209Z,69.84
2022-11-19T08:47:20.196Z,69.10
2022-11-19T08:48:20.221Z,68.76
2022-11-19T08:49:20.176Z,69.04
2022-11-19T08:50:20.167Z,68.38
2022-11-19T08:51:20.153Z,67.94
2022-11-19T08:52:20.143Z,67.29
2022-11-19T08:53:20.147Z,66.56
2022-11-19T08:54:20.287Z,66.45
2022-11-19T08:55:20.111Z,66.66
2022-11-19T08:56:20.104Z,66.03
2022-11-19T08:57:20.089Z,66.56
2022-11-19T08:58:20.093Z,66.35
2022-11-19T08:59:27.882Z,66.56
2022-11-19T09:00:27.998Z,66.45
2022-11-19T09:01:20.121Z,66.24
2022-11-19T09:02:20.037Z,66.77
2022-11-19T09:03:20.035Z,66.66
2022-11-19T09:04:20.405Z,66.56
2022-11-19T09:05:20.003Z,66.77
2022-11-19T09:06:19.998Z,67.39
2022-11-19T09:07:20.052Z,67.83
2022-11-19T09:08:20.035Z,68.46
2022-11-19T09:09:19.966Z,68.15
2022-11-19T09:10:19.953Z,67.94
2022-11-19T09:11:19.942Z,67.94
2022-11-19T09:12:19.930Z,68.80
2022-11-19T09:13:19.921Z,68.60
2022-11-19T09:14:20.187Z,68.28
2022-11-19T09:15:19.897Z,68.60
2022-11-19T09:16:19.887Z,68.91
2022-11-19T09:17:19.875Z,69.01
2022-11-19T09:18:26.926Z,69.35
2022-11-19T09:19:19.853Z,69.12
2022-11-19T09:20:19.861Z,69.32
2022-11-19T09:21:19.832Z,69.67
2022-11-19T09:22:19.825Z,70.09
2022-11-19T09:23:19.811Z,69.98
2022-11-19T09:24:20.098Z,69.67
2022-11-19T09:25:19.790Z,70.64
2022-11-19T09:26:19.789Z,70.64
2022-11-19T09:27:19.770Z,70.95
2022-11-19T09:28:19.763Z,71.16
2022-11-19T09:29:19.760Z,71.16
2022-11-19T09:31:11.503Z,70.74
2022-11-19T09:32:11.484Z,70.64
2022-11-19T09:33:11.489Z,71.16
2022-11-19T09:34:11.479Z,71.37
2022-11-19T09:35:11.456Z,70.95
2022-11-19T09:36:11.474Z,70.64
2022-11-19T09:37:11.435Z,69.59
2022-11-19T09:38:11.430Z,69.87
2022-11-19T09:39:11.426Z,70.01
2022-11-19T09:40:11.402Z,70.01
2022-11-19T09:41:11.393Z,69.98
2022-11-19T09:42:11.383Z,69.15
2022-11-19T09:43:15.260Z,69.25
2022-11-19T09:44:11.382Z,68.49
2022-11-19T09:45:11.349Z,68.42
2022-11-19T09:46:11.338Z,68.49
2022-11-19T09:47:11.332Z,67.52
2022-11-19T09:48:11.371Z,67.00
2022-11-19T09:49:11.523Z,66.35
2022-11-19T09:50:11.295Z,65.62
2022-11-19T09:51:11.293Z,65.72
2022-11-19T09:52:11.296Z,65.48
2022-11-19T09:53:11.366Z,64.86
2022-11-19T09:54:11.264Z,64.34
2022-11-19T09:55:11.255Z,64.34
2022-11-19T09:56:11.227Z,64.24
2022-11-19T09:57:11.225Z,63.62
2022-11-19T09:58:11.331Z,64.03
2022-11-19T09:59:11.224Z,63.96
2022-11-19T10:00:11.189Z,64.14
2022-11-19T10:01:11.179Z,64.06
2022-11-19T10:02:11.167Z,63.54
2022-11-19T10:03:11.287Z,64.19
2022-11-19T10:04:11.157Z,64.19
2022-11-19T10:05:11.136Z,63.98
2022-11-19T10:06:11.122Z,64.09
2022-11-19T10:07:11.168Z,64.32
2022-11-19T10:08:11.119Z,64.85
2022-11-19T10:09:11.106Z,64.95
2022-11-19T10:10:12.643Z,64.32
2022-11-19T10:11:11.072Z,64.75
2022-11-19T10:12:11.059Z,64.01
2022-11-19T10:13:11.136Z,64.01
2022-11-19T10:14:11.051Z,64.01
2022-11-19T10:15:11.029Z,63.81
2022-11-19T10:16:11.017Z,64.12
2022-11-19T10:17:11.038Z,63.91
2022-11-19T10:18:11.068Z,63.91
2022-11-19T10:19:11.072Z,64.01
2022-11-19T10:20:10.984Z,64.15
2022-11-19T10:21:10.966Z,64.04
2022-11-19T10:22:10.960Z,63.94
2022-11-19T10:23:10.944Z,63.94
2022-11-19T10:24:10.969Z,64.04
2022-11-19T10:25:10.923Z,64.15
2022-11-19T10:26:10.911Z,64.36
2022-11-19T10:27:10.916Z,63.94
2022-11-19T10:28:10.955Z,64.25
2022-11-19T10:29:10.902Z,63.53
2022-11-19T10:30:10.879Z,63.84
2022-11-19T10:31:11.062Z,63.49
2022-11-19T10:32:11.031Z,63.70
2022-11-19T10:33:10.848Z,64.22
2022-11-19T10:34:10.841Z,63.32
2022-11-19T10:35:10.821Z,64.25
2022-11-19T10:36:10.832Z,64.12
2022-11-19T10:37:10.818Z,64.15
2022-11-19T10:38:12.998Z,64.12
2022-11-19T10:39:10.828Z,64.12
2022-11-19T10:40:10.894Z,64.85
2022-11-19T10:41:10.766Z,64.22
2022-11-19T10:42:10.798Z,64.04
2022-11-19T10:43:10.848Z,64.12
2022-11-19T10:44:10.879Z,63.49
2022-11-19T10:45:10.756Z,63.39
2022-11-19T10:46:10.738Z,63.18
2022-11-19T10:47:10.715Z,63.39
2022-11-19T10:48:10.760Z,63.18
2022-11-19T10:49:10.738Z,63.08
2022-11-19T10:50:11.550Z,63.18
2022-11-19T10:51:10.659Z,62.98
2022-11-19T10:52:10.643Z,63.49
2022-11-19T10:53:10.673Z,62.24
2022-11-19T10:54:10.666Z,62.76
2022-11-19T10:55:10.655Z,62.22
2022-11-19T10:56:10.621Z,62.01
2022-11-19T10:57:10.653Z,61.38
2022-11-19T10:58:10.706Z,60.86
2022-11-19T10:59:10.586Z,61.36
2022-11-19T11:00:10.582Z,60.31
2022-11-19T11:01:10.582Z,60.66
2022-11-19T11:02:10.641Z,60.31
2022-11-19T11:03:10.540Z,60.14
2022-11-19T11:04:10.520Z,60.21
2022-11-19T11:05:10.522Z,60.00
2022-11-19T11:06:10.506Z,60.08
2022-11-19T11:07:10.549Z,59.77
2022-11-19T11:08:10.508Z,59.88
2022-11-19T11:09:10.622Z,59.14
2022-11-19T11:10:10.635Z,58.83
2022-11-19T11:11:10.450Z,57.90
2022-11-19T11:12:10.449Z,58.94
2022-11-19T11:13:10.419Z,58.08
2022-11-19T11:14:10.421Z,58.00
2022-11-19T11:15:10.439Z,57.90
2022-11-19T11:16:10.385Z,57.59
2022-11-19T11:17:10.374Z,58.11
2022-11-19T11:18:10.594Z,58.11
2022-11-19T11:19:10.375Z,58.29
2022-11-19T11:20:10.430Z,58.18
2022-11-19T11:21:10.351Z,58.18
2022-11-19T11:22:10.350Z,58.39
2022-11-19T11:23:10.319Z,58.08
2022-11-19T11:24:10.397Z,59.01
2022-11-19T11:25:10.324Z,59.33
2022-11-19T11:26:10.289Z,59.43
2022-11-19T11:27:10.307Z,59.43
2022-11-19T11:28:10.272Z,59.43
2022-11-19T11:29:10.287Z,59.43
2022-11-19T11:30:10.249Z,59.95
2022-11-19T11:31:10.257Z,60.26
2022-11-19T11:32:10.217Z,60.26
2022-11-19T11:33:10.207Z,60.47
2022-11-19T11:34:10.201Z,60.78
2022-11-19T11:35:15.939Z,60.88
2022-11-19T11:36:11.173Z,61.30
2022-11-19T11:37:10.171Z,61.40
2022-11-19T11:38:10.226Z,61.40
2022-11-19T11:39:10.152Z,61.51
2022-11-19T11:40:10.153Z,62.05
2022-11-19T11:42:16.061Z,62.24
2022-11-19T11:43:11.103Z,62.16
2022-11-19T11:44:10.101Z,62.76
2022-11-19T11:45:10.099Z,62.47
2022-11-19T11:46:10.065Z,64.03
2022-11-19T11:47:10.061Z,63.93
2022-11-19T11:48:10.059Z,64.03
2022-11-19T11:49:12.751Z,64.62
2022-11-19T11:50:10.035Z,64.73
2022-11-19T11:51:10.029Z,64.21
2022-11-19T11:52:10.012Z,63.90
2022-11-19T11:53:10.126Z,64.21
2022-11-19T11:54:15.089Z,64.62
2022-11-19T11:55:10.994Z,65.14
2022-11-19T11:56:09.954Z,65.45
2022-11-19T11:57:09.945Z,65.35
2022-11-19T11:58:09.934Z,65.66
2022-11-19T11:59:09.923Z,65.45
2022-11-19T12:00:09.944Z,64.83
2022-11-19T12:01:15.318Z,65.04
2022-11-19T12:02:10.931Z,65.45
2022-11-19T12:03:09.937Z,65.56
2022-11-19T12:04:09.868Z,65.87
2022-11-19T12:05:09.869Z,65.97
2022-11-19T12:06:09.851Z,65.97
2022-11-19T12:07:09.875Z,66.00
2022-11-19T12:08:09.826Z,66.18
2022-11-19T12:09:09.814Z,66.28
2022-11-19T12:10:09.846Z,66.50
2022-11-19T12:11:09.798Z,66.18
2022-11-19T12:12:09.782Z,66.50
2022-11-19T12:13:09.872Z,66.71
2022-11-19T12:14:11.251Z,66.50
2022-11-19T12:15:09.761Z,66.53
2022-11-19T12:16:09.755Z,66.63
2022-11-19T12:17:09.738Z,66.42
2022-11-19T12:18:09.763Z,67.36
2022-11-19T12:19:09.710Z,67.57
2022-11-19T12:20:09.729Z,67.64
2022-11-19T12:21:11.640Z,68.19
2022-11-19T12:22:09.678Z,68.16
2022-11-19T12:23:09.745Z,68.05
2022-11-19T12:24:09.659Z,68.16
2022-11-19T12:25:09.659Z,67.74
2022-11-19T12:26:09.633Z,67.64
2022-11-19T12:27:09.626Z,68.16
2022-11-19T12:28:09.614Z,67.85
2022-11-19T12:29:09.601Z,68.47
2022-11-19T12:30:09.605Z,67.95
2022-11-19T12:31:09.579Z,68.47
2022-11-19T12:32:09.631Z,68.47
2022-11-19T12:33:09.566Z,68.26
2022-11-19T12:34:09.548Z,67.61
2022-11-19T12:35:09.551Z,68.02
2022-11-19T12:36:09.529Z,68.13
2022-11-19T12:37:09.514Z,67.92
2022-11-19T12:38:09.505Z,68.02
2022-11-19T12:39:09.498Z,68.23
2022-11-19T12:40:09.496Z,68.02
2022-11-19T12:41:09.473Z,68.13
2022-11-19T12:42:09.461Z,68.33
2022-11-19T12:43:09.451Z,68.65
2022-11-19T12:44:09.444Z,68.54
2022-11-19T12:45:09.470Z,68.54
2022-11-19T12:46:09.420Z,68.82
2022-11-19T12:47:09.409Z,68.93
2022-11-19T12:48:09.418Z,68.96
2022-11-19T12:49:09.388Z,69.37
2022-11-19T12:50:09.399Z,68.96
2022-11-19T12:51:09.363Z,69.03
2022-11-19T12:52:09.354Z,69.48
2022-11-19T12:53:09.342Z,69.27
2022-11-19T12:54:10.719Z,69.34
2022-11-19T12:55:09.336Z,69.48
2022-11-19T12:56:09.312Z,69.34